sensor_id;sensor_type;location;lat;lon;timestamp;pressure;altitude;pressure_sealevel;temperature;humidity
29467;BME280;60968;37.490;-122.288;2023-04-20T00:00:40;99505.16;;;14.29;47.84
29467;BME280;60968;37.490;-122.288;2023-04-20T00:03:41;99495.59;;;14.27;47.82
29467;BME280;60968;37.490;-122.288;2023-04-20T00:06:42;99498.97;;;14.33;46.87
29467;BME280;60968;37.490;-122.288;2023-04-20T00:09:54;99496.44;;;14.27;46.14
29467;BME280;60968;37.490;-122.288;2023-04-20T00:12:57;99491.53;;;14.12;46.73
29467;BME280;60968;37.490;-122.288;2023-04-20T00:15:59;99489.59;;;14.21;47.17
29467;BME280;60968;37.490;-122.288;2023-04-20T00:19:01;99490.44;;;14.23;46.57
29467;BME280;60968;37.490;-122.288;2023-04-20T00:22:02;99488.00;;;14.14;45.07
29467;BME280;60968;37.490;-122.288;2023-04-20T00:25:03;99496.03;;;14.06;46.04
29467;BME280;60968;37.490;-122.288;2023-04-20T00:28:04;99484.78;;;14.01;46.05
29467;BME280;60968;37.490;-122.288;2023-04-20T00:31:06;99489.06;;;14.05;46.43
29467;BME280;60968;37.490;-122.288;2023-04-20T00:34:06;99486.75;;;13.90;45.85
29467;BME280;60968;37.490;-122.288;2023-04-20T00:37:07;99491.94;;;13.92;45.93
29467;BME280;60968;37.490;-122.288;2023-04-20T00:40:09;99499.09;;;13.83;47.61
29467;BME280;60968;37.490;-122.288;2023-04-20T00:43:11;99500.97;;;13.77;47.40
29467;BME280;60968;37.490;-122.288;2023-04-20T00:46:12;99498.84;;;13.50;47.16
29467;BME280;60968;37.490;-122.288;2023-04-20T00:49:14;99496.31;;;13.46;47.92
29467;BME280;60968;37.490;-122.288;2023-04-20T00:52:27;99496.31;;;13.46;48.02
29467;BME280;60968;37.490;-122.288;2023-04-20T00:55:29;99495.50;;;13.42;48.42
29467;BME280;60968;37.490;-122.288;2023-04-20T00:58:33;99493.75;;;13.43;48.86
29467;BME280;60968;37.490;-122.288;2023-04-20T01:01:34;99497.25;;;13.43;49.01
29467;BME280;60968;37.490;-122.288;2023-04-20T01:04:37;99500.84;;;13.36;49.38
29467;BME280;60968;37.490;-122.288;2023-04-20T01:07:40;99497.53;;;13.23;49.60
29467;BME280;60968;37.490;-122.288;2023-04-20T01:10:41;99487.84;;;13.30;50.35
29467;BME280;60968;37.490;-122.288;2023-04-20T01:13:42;99478.06;;;13.41;51.00
29467;BME280;60968;37.490;-122.288;2023-04-20T01:16:44;99485.09;;;13.39;50.81
29467;BME280;60968;37.490;-122.288;2023-04-20T01:19:47;99484.50;;;13.21;50.91
29467;BME280;60968;37.490;-122.288;2023-04-20T01:22:52;99487.22;;;13.15;51.10
29467;BME280;60968;37.490;-122.288;2023-04-20T01:25:54;99490.91;;;13.03;50.78
29467;BME280;60968;37.490;-122.288;2023-04-20T01:28:56;99492.78;;;12.94;50.64
29467;BME280;60968;37.490;-122.288;2023-04-20T01:31:57;99491.34;;;12.77;49.96
29467;BME280;60968;37.490;-122.288;2023-04-20T01:35:00;99487.09;;;12.68;50.25
29467;BME280;60968;37.490;-122.288;2023-04-20T01:38:01;99491.69;;;12.52;49.76
29467;BME280;60968;37.490;-122.288;2023-04-20T01:41:06;99494.66;;;12.25;50.34
29467;BME280;60968;37.490;-122.288;2023-04-20T01:44:08;99497.66;;;11.97;50.97
29467;BME280;60968;37.490;-122.288;2023-04-20T01:47:09;99504.72;;;11.86;51.22
29467;BME280;60968;37.490;-122.288;2023-04-20T01:50:10;99507.34;;;11.86;51.96
29467;BME280;60968;37.490;-122.288;2023-04-20T01:53:12;99503.94;;;11.77;52.69
29467;BME280;60968;37.490;-122.288;2023-04-20T01:56:13;99491.06;;;11.62;53.67
29467;BME280;60968;37.490;-122.288;2023-04-20T01:59:14;99498.88;;;11.59;55.17
29467;BME280;60968;37.490;-122.288;2023-04-20T02:02:16;99503.25;;;11.60;55.22
29467;BME280;60968;37.490;-122.288;2023-04-20T02:05:19;99505.06;;;11.52;56.56
29467;BME280;60968;37.490;-122.288;2023-04-20T02:08:23;99514.81;;;11.34;57.39
29467;BME280;60968;37.490;-122.288;2023-04-20T02:11:26;99515.69;;;11.33;56.70
29467;BME280;60968;37.490;-122.288;2023-04-20T02:14:27;99508.81;;;11.24;56.64
29467;BME280;60968;37.490;-122.288;2023-04-20T02:17:29;99509.88;;;11.02;57.42
29467;BME280;60968;37.490;-122.288;2023-04-20T02:20:33;99513.38;;;10.97;59.18
29467;BME280;60968;37.490;-122.288;2023-04-20T02:23:36;99515.19;;;10.86;58.77
29467;BME280;60968;37.490;-122.288;2023-04-20T02:26:41;99524.81;;;10.76;59.75
29467;BME280;60968;37.490;-122.288;2023-04-20T02:29:46;99526.66;;;10.62;60.32
29467;BME280;60968;37.490;-122.288;2023-04-20T02:33:03;99525.00;;;10.45;60.65
29467;BME280;60968;37.490;-122.288;2023-04-20T02:36:12;99525.09;;;10.25;61.71
29467;BME280;60968;37.490;-122.288;2023-04-20T02:39:16;99528.63;;;10.07;62.26
29467;BME280;60968;37.490;-122.288;2023-04-20T02:42:23;99533.88;;;9.95;63.10
29467;BME280;60968;37.490;-122.288;2023-04-20T02:45:24;99526.09;;;9.84;63.35
29467;BME280;60968;37.490;-122.288;2023-04-20T02:48:26;99526.16;;;9.72;63.73
29467;BME280;60968;37.490;-122.288;2023-04-20T02:51:27;99525.25;;;9.71;63.80
29467;BME280;60968;37.490;-122.288;2023-04-20T02:54:28;99527.91;;;9.64;64.45
29467;BME280;60968;37.490;-122.288;2023-04-20T02:57:29;99529.63;;;9.49;64.92
29467;BME280;60968;37.490;-122.288;2023-04-20T03:00:30;99540.06;;;9.31;65.87
29467;BME280;60968;37.490;-122.288;2023-04-20T03:03:31;99543.53;;;9.33;65.98
29467;BME280;60968;37.490;-122.288;2023-04-20T03:06:32;99540.06;;;9.23;66.66
29467;BME280;60968;37.490;-122.288;2023-04-20T03:09:35;99545.28;;;9.23;66.53
29467;BME280;60968;37.490;-122.288;2023-04-20T03:12:40;99541.81;;;9.27;66.39
29467;BME280;60968;37.490;-122.288;2023-04-20T03:15:44;99549.59;;;9.15;65.94
29467;BME280;60968;37.490;-122.288;2023-04-20T03:18:44;99559.13;;;9.03;66.54
29467;BME280;60968;37.490;-122.288;2023-04-20T03:21:45;99561.72;;;8.91;66.90
29467;BME280;60968;37.490;-122.288;2023-04-20T03:24:49;99566.91;;;8.88;66.88
29467;BME280;60968;37.490;-122.288;2023-04-20T03:27:51;99572.97;;;8.82;67.16
29467;BME280;60968;37.490;-122.288;2023-04-20T03:30:52;99574.69;;;8.68;67.29
29467;BME280;60968;37.490;-122.288;2023-04-20T03:33:53;99572.03;;;8.66;67.84
29467;BME280;60968;37.490;-122.288;2023-04-20T03:36:54;99578.13;;;8.65;66.31
29467;BME280;60968;37.490;-122.288;2023-04-20T03:39:56;99578.13;;;8.62;65.73
29467;BME280;60968;37.490;-122.288;2023-04-20T03:42:58;99580.69;;;8.57;65.39
29467;BME280;60968;37.490;-122.288;2023-04-20T03:45:59;99578.94;;;8.52;65.13
29467;BME280;60968;37.490;-122.288;2023-04-20T03:49:01;99586.72;;;8.49;64.52
29467;BME280;60968;37.490;-122.288;2023-04-20T03:52:02;99593.66;;;8.48;63.91
29467;BME280;60968;37.490;-122.288;2023-04-20T03:55:04;99593.66;;;8.47;64.63
29467;BME280;60968;37.490;-122.288;2023-04-20T03:58:05;99600.50;;;8.38;65.74
29467;BME280;60968;37.490;-122.288;2023-04-20T04:01:06;99610.00;;;8.36;66.58
29467;BME280;60968;37.490;-122.288;2023-04-20T04:04:09;99604.81;;;8.30;66.84
29467;BME280;60968;37.490;-122.288;2023-04-20T04:07:11;99610.00;;;8.30;67.10
29467;BME280;60968;37.490;-122.288;2023-04-20T04:10:12;99609.09;;;8.25;67.42
29467;BME280;60968;37.490;-122.288;2023-04-20T04:13:14;99616.03;;;8.26;67.13
29467;BME280;60968;37.490;-122.288;2023-04-20T04:16:15;99618.63;;;8.26;66.71
29467;BME280;60968;37.490;-122.288;2023-04-20T04:19:16;99627.25;;;8.25;66.52
29467;BME280;60968;37.490;-122.288;2023-04-20T04:22:17;99632.47;;;8.25;66.01
29467;BME280;60968;37.490;-122.288;2023-04-20T04:25:18;99635.91;;;8.24;65.42
29467;BME280;60968;37.490;-122.288;2023-04-20T04:28:19;99631.63;;;8.29;64.06
29467;BME280;60968;37.490;-122.288;2023-04-20T04:31:21;99645.50;;;8.31;63.86
29467;BME280;60968;37.490;-122.288;2023-04-20T04:34:22;99648.09;;;8.34;63.90
29467;BME280;60968;37.490;-122.288;2023-04-20T04:37:24;99648.94;;;8.33;64.36
29467;BME280;60968;37.490;-122.288;2023-04-20T04:40:25;99648.94;;;8.32;64.44
29467;BME280;60968;37.490;-122.288;2023-04-20T04:43:26;99652.38;;;8.31;65.14
29467;BME280;60968;37.490;-122.288;2023-04-20T04:46:30;99654.97;;;8.29;64.76
29467;BME280;60968;37.490;-122.288;2023-04-20T04:49:32;99663.66;;;8.33;64.75
29467;BME280;60968;37.490;-122.288;2023-04-20T04:52:34;99662.78;;;8.35;64.96
29467;BME280;60968;37.490;-122.288;2023-04-20T04:55:35;99660.25;;;8.40;64.00
29467;BME280;60968;37.490;-122.288;2023-04-20T04:58:36;99665.44;;;8.43;63.89
29467;BME280;60968;37.490;-122.288;2023-04-20T05:01:38;99668.09;;;8.46;64.09
29467;BME280;60968;37.490;-122.288;2023-04-20T05:04:40;99667.22;;;8.46;63.92
29467;BME280;60968;37.490;-122.288;2023-04-20T05:07:41;99674.97;;;8.43;63.83
29467;BME280;60968;37.490;-122.288;2023-04-20T05:10:42;99668.94;;;8.45;63.60
29467;BME280;60968;37.490;-122.288;2023-04-20T05:13:43;99665.50;;;8.48;62.61
29467;BME280;60968;37.490;-122.288;2023-04-20T05:16:45;99661.19;;;8.47;62.09
29467;BME280;60968;37.490;-122.288;2023-04-20T05:19:46;99666.38;;;8.50;61.61
29467;BME280;60968;37.490;-122.288;2023-04-20T05:22:47;99675.03;;;8.50;61.05
29467;BME280;60968;37.490;-122.288;2023-04-20T05:25:48;99674.19;;;8.56;60.57
29467;BME280;60968;37.490;-122.288;2023-04-20T05:28:48;99679.38;;;8.56;60.35
29467;BME280;60968;37.490;-122.288;2023-04-20T05:31:49;99670.72;;;8.54;60.30
29467;BME280;60968;37.490;-122.288;2023-04-20T05:34:51;99668.16;;;8.57;59.71
29467;BME280;60968;37.490;-122.288;2023-04-20T05:37:53;99672.50;;;8.58;59.36
29467;BME280;60968;37.490;-122.288;2023-04-20T05:40:55;99670.75;;;8.57;59.30
29467;BME280;60968;37.490;-122.288;2023-04-20T05:43:56;99680.28;;;8.56;58.96
29467;BME280;60968;37.490;-122.288;2023-04-20T05:46:57;99686.31;;;8.55;58.94
29467;BME280;60968;37.490;-122.288;2023-04-20T05:50:00;99695.81;;;8.53;59.00
29467;BME280;60968;37.490;-122.288;2023-04-20T05:53:03;99703.59;;;8.49;59.19
29467;BME280;60968;37.490;-122.288;2023-04-20T05:56:04;99696.66;;;8.45;59.54
29467;BME280;60968;37.490;-122.288;2023-04-20T05:59:05;99689.66;;;8.39;60.49
29467;BME280;60968;37.490;-122.288;2023-04-20T06:02:06;99703.50;;;8.36;60.30
29467;BME280;60968;37.490;-122.288;2023-04-20T06:05:08;99691.41;;;8.37;60.36
29467;BME280;60968;37.490;-122.288;2023-04-20T06:08:09;99691.41;;;8.38;59.84
29467;BME280;60968;37.490;-122.288;2023-04-20T06:11:10;99699.19;;;8.38;60.35
29467;BME280;60968;37.490;-122.288;2023-04-20T06:14:11;99694.84;;;8.36;61.08
29467;BME280;60968;37.490;-122.288;2023-04-20T06:17:12;99694.84;;;8.34;61.37
29467;BME280;60968;37.490;-122.288;2023-04-20T06:20:13;99698.28;;;8.32;61.52
29467;BME280;60968;37.490;-122.288;2023-04-20T06:23:14;99701.72;;;8.32;61.11
29467;BME280;60968;37.490;-122.288;2023-04-20T06:26:17;99708.66;;;8.33;60.33
29467;BME280;60968;37.490;-122.288;2023-04-20T06:29:21;99706.94;;;8.35;60.71
29467;BME280;60968;37.490;-122.288;2023-04-20T06:32:21;99705.22;;;8.34;60.23
29467;BME280;60968;37.490;-122.288;2023-04-20T06:35:24;99711.28;;;8.35;60.46
29467;BME280;60968;37.490;-122.288;2023-04-20T06:38:25;99713.00;;;8.34;59.39
29467;BME280;60968;37.490;-122.288;2023-04-20T06:41:26;99711.25;;;8.30;60.46
29467;BME280;60968;37.490;-122.288;2023-04-20T06:44:27;99718.13;;;8.25;59.96
29467;BME280;60968;37.490;-122.288;2023-04-20T06:47:29;99718.97;;;8.21;60.70
29467;BME280;60968;37.490;-122.288;2023-04-20T06:50:30;99719.84;;;8.20;60.09
29467;BME280;60968;37.490;-122.288;2023-04-20T06:53:31;99715.50;;;8.20;60.99
29467;BME280;60968;37.490;-122.288;2023-04-20T06:56:32;99720.69;;;8.16;61.39
29467;BME280;60968;37.490;-122.288;2023-04-20T06:59:33;99725.00;;;8.15;61.55
29467;BME280;60968;37.490;-122.288;2023-04-20T07:02:47;99724.16;;;8.18;62.05
29467;BME280;60968;37.490;-122.288;2023-04-20T07:05:49;99724.13;;;8.12;63.06
29467;BME280;60968;37.490;-122.288;2023-04-20T07:08:52;99724.13;;;8.12;64.43
29467;BME280;60968;37.490;-122.288;2023-04-20T07:11:54;99725.78;;;8.06;65.37
29467;BME280;60968;37.490;-122.288;2023-04-20T07:14:54;99730.94;;;8.00;65.92
29467;BME280;60968;37.490;-122.288;2023-04-20T07:17:57;99731.78;;;7.96;66.31
29467;BME280;60968;37.490;-122.288;2023-04-20T07:20:59;99730.88;;;7.93;67.94
29467;BME280;60968;37.490;-122.288;2023-04-20T07:24:01;99726.50;;;7.88;69.13
29467;BME280;60968;37.490;-122.288;2023-04-20T07:27:08;99727.41;;;7.89;69.70
29467;BME280;60968;37.490;-122.288;2023-04-20T07:30:10;99734.28;;;7.87;71.00
29467;BME280;60968;37.490;-122.288;2023-04-20T07:33:11;99742.03;;;7.82;69.95
29467;BME280;60968;37.490;-122.288;2023-04-20T07:36:12;99734.19;;;7.78;69.64
29467;BME280;60968;37.490;-122.288;2023-04-20T07:39:13;99731.56;;;7.73;70.41
29467;BME280;60968;37.490;-122.288;2023-04-20T07:42:15;99735.81;;;7.66;70.50
29467;BME280;60968;37.490;-122.288;2023-04-20T07:45:17;99741.84;;;7.61;70.66
29467;BME280;60968;37.490;-122.288;2023-04-20T07:48:18;99736.59;;;7.56;71.21
29467;BME280;60968;37.490;-122.288;2023-04-20T07:51:19;99739.16;;;7.50;71.56
29467;BME280;60968;37.490;-122.288;2023-04-20T07:54:20;99731.38;;;7.50;71.73
29467;BME280;60968;37.490;-122.288;2023-04-20T07:57:21;99736.59;;;7.53;70.67
29467;BME280;60968;37.490;-122.288;2023-04-20T08:00:23;99734.00;;;7.56;70.47
29467;BME280;60968;37.490;-122.288;2023-04-20T08:03:27;99736.63;;;7.58;70.41
29467;BME280;60968;37.490;-122.288;2023-04-20T08:06:28;99737.44;;;7.55;70.02
29467;BME280;60968;37.490;-122.288;2023-04-20T08:09:30;99738.34;;;7.54;70.22
29467;BME280;60968;37.490;-122.288;2023-04-20T08:12:31;99743.53;;;7.54;69.82
29467;BME280;60968;37.490;-122.288;2023-04-20T08:15:34;99740.94;;;7.57;69.70
29467;BME280;60968;37.490;-122.288;2023-04-20T08:18:35;99737.47;;;7.56;70.35
29467;BME280;60968;37.490;-122.288;2023-04-20T08:21:37;99728.81;;;7.56;70.74
29467;BME280;60968;37.490;-122.288;2023-04-20T08:24:38;99732.28;;;7.56;70.58
29467;BME280;60968;37.490;-122.288;2023-04-20T08:27:40;99734.00;;;7.56;71.31
29467;BME280;60968;37.490;-122.288;2023-04-20T08:30:41;99725.38;;;7.55;73.50
29467;BME280;60968;37.490;-122.288;2023-04-20T08:33:43;99721.00;;;7.48;73.76
29467;BME280;60968;37.490;-122.288;2023-04-20T08:36:44;99714.88;;;7.45;74.87
29467;BME280;60968;37.490;-122.288;2023-04-20T08:39:45;99718.31;;;7.42;74.65
29467;BME280;60968;37.490;-122.288;2023-04-20T08:42:48;99718.31;;;7.44;75.69
29467;BME280;60968;37.490;-122.288;2023-04-20T08:45:56;99724.34;;;7.41;76.10
29467;BME280;60968;37.490;-122.288;2023-04-20T08:48:59;99726.91;;;7.36;76.13
29467;BME280;60968;37.490;-122.288;2023-04-20T08:52:00;99731.16;;;7.30;77.57
29467;BME280;60968;37.490;-122.288;2023-04-20T08:55:01;99728.53;;;7.28;78.59
29467;BME280;60968;37.490;-122.288;2023-04-20T08:58:02;99726.81;;;7.27;79.51
29467;BME280;60968;37.490;-122.288;2023-04-20T09:01:03;99724.16;;;7.22;79.50
29467;BME280;60968;37.490;-122.288;2023-04-20T09:04:18;99725.84;;;7.16;81.17
29467;BME280;60968;37.490;-122.288;2023-04-20T09:07:20;99724.94;;;7.14;82.58
29467;BME280;60968;37.490;-122.288;2023-04-20T09:10:25;99721.50;;;7.15;82.43
29467;BME280;60968;37.490;-122.288;2023-04-20T09:13:26;99729.25;;;7.12;82.52
29467;BME280;60968;37.490;-122.288;2023-04-20T09:16:27;99722.31;;;7.11;83.20
29467;BME280;60968;37.490;-122.288;2023-04-20T09:19:30;99717.16;;;7.12;83.94
29467;BME280;60968;37.490;-122.288;2023-04-20T09:22:34;99716.31;;;7.13;84.01
29467;BME280;60968;37.490;-122.288;2023-04-20T09:25:35;99721.50;;;7.15;85.23
29467;BME280;60968;37.490;-122.288;2023-04-20T09:28:38;99730.25;;;7.26;84.38
29467;BME280;60968;37.490;-122.288;2023-04-20T09:31:39;99728.63;;;7.34;84.48
29467;BME280;60968;37.490;-122.288;2023-04-20T09:34:43;99736.44;;;7.39;84.96
29467;BME280;60968;37.490;-122.288;2023-04-20T09:37:47;99729.56;;;7.43;84.37
29467;BME280;60968;37.490;-122.288;2023-04-20T09:40:49;99725.25;;;7.45;84.80
29467;BME280;60968;37.490;-122.288;2023-04-20T09:43:50;99718.34;;;7.45;84.83
29467;BME280;60968;37.490;-122.288;2023-04-20T09:46:52;99727.00;;;7.43;84.89
29467;BME280;60968;37.490;-122.288;2023-04-20T09:49:53;99729.56;;;7.43;85.29
29467;BME280;60968;37.490;-122.288;2023-04-20T09:52:55;99733.00;;;7.40;85.89
29467;BME280;60968;37.490;-122.288;2023-04-20T09:55:57;99739.84;;;7.33;86.40
29467;BME280;60968;37.490;-122.288;2023-04-20T09:59:00;99744.09;;;7.28;86.99
29467;BME280;60968;37.490;-122.288;2023-04-20T10:02:06;99734.50;;;7.21;87.16
29467;BME280;60968;37.490;-122.288;2023-04-20T10:05:07;99734.47;;;7.15;87.71
29467;BME280;60968;37.490;-122.288;2023-04-20T10:08:09;99732.66;;;7.08;88.41
29467;BME280;60968;37.490;-122.288;2023-04-20T10:11:11;99734.31;;;7.04;89.23
29467;BME280;60968;37.490;-122.288;2023-04-20T10:14:25;99744.69;;;7.02;89.65
29467;BME280;60968;37.490;-122.288;2023-04-20T10:17:30;99746.44;;;7.05;90.30
29467;BME280;60968;37.490;-122.288;2023-04-20T10:20:33;99746.47;;;7.08;90.75
29467;BME280;60968;37.490;-122.288;2023-04-20T10:23:34;99748.22;;;7.11;90.82
29467;BME280;60968;37.490;-122.288;2023-04-20T10:26:39;99742.16;;;7.09;92.02
29467;BME280;60968;37.490;-122.288;2023-04-20T10:29:42;99734.31;;;7.02;93.22
29467;BME280;60968;37.490;-122.288;2023-04-20T10:32:43;99730.78;;;6.97;94.63
29467;BME280;60968;37.490;-122.288;2023-04-20T10:35:47;99729.88;;;6.92;95.64
29467;BME280;60968;37.490;-122.288;2023-04-20T10:38:50;99737.66;;;6.92;96.31
29467;BME280;60968;37.490;-122.288;2023-04-20T10:41:54;99731.59;;;6.93;96.80
29467;BME280;60968;37.490;-122.288;2023-04-20T10:44:56;99729.00;;;6.92;97.08
29467;BME280;60968;37.490;-122.288;2023-04-20T10:48:05;99729.88;;;6.91;96.28
29467;BME280;60968;37.490;-122.288;2023-04-20T10:51:09;99722.91;;;6.88;96.78
29467;BME280;60968;37.490;-122.288;2023-04-20T10:54:12;99722.00;;;6.86;97.62
29467;BME280;60968;37.490;-122.288;2023-04-20T10:57:15;99725.50;;;6.86;96.13
29467;BME280;60968;37.490;-122.288;2023-04-20T11:00:23;99722.91;;;6.86;96.56
29467;BME280;60968;37.490;-122.288;2023-04-20T11:03:29;99710.75;;;6.81;96.98
29467;BME280;60968;37.490;-122.288;2023-04-20T11:06:30;99716.72;;;6.74;96.93
29467;BME280;60968;37.490;-122.288;2023-04-20T11:09:32;99719.22;;;6.70;97.21
29467;BME280;60968;37.490;-122.288;2023-04-20T11:12:38;99723.53;;;6.68;96.83
29467;BME280;60968;37.490;-122.288;2023-04-20T11:15:39;99723.56;;;6.70;96.51
29467;BME280;60968;37.490;-122.288;2023-04-20T11:18:53;99728.69;;;6.67;97.84
29467;BME280;60968;37.490;-122.288;2023-04-20T11:21:58;99737.25;;;6.60;98.67
29467;BME280;60968;37.490;-122.288;2023-04-20T11:25:03;99728.53;;;6.55;99.74
29467;BME280;60968;37.490;-122.288;2023-04-20T11:28:07;99728.50;;;6.51;100.00
29467;BME280;60968;37.490;-122.288;2023-04-20T11:31:16;99725.81;;;6.45;100.00
29467;BME280;60968;37.490;-122.288;2023-04-20T11:34:17;99730.13;;;6.45;100.00
29467;BME280;60968;37.490;-122.288;2023-04-20T11:37:18;99725.81;;;6.47;100.00
29467;BME280;60968;37.490;-122.288;2023-04-20T11:40:19;99712.88;;;6.47;100.00
29467;BME280;60968;37.490;-122.288;2023-04-20T11:43:20;99717.19;;;6.46;100.00
29467;BME280;60968;37.490;-122.288;2023-04-20T11:46:22;99714.59;;;6.45;100.00
29467;BME280;60968;37.490;-122.288;2023-04-20T11:49:24;99708.56;;;6.46;100.00
29467;BME280;60968;37.490;-122.288;2023-04-20T11:52:25;99710.28;;;6.47;100.00
29467;BME280;60968;37.490;-122.288;2023-04-20T11:55:26;99708.59;;;6.49;100.00
29467;BME280;60968;37.490;-122.288;2023-04-20T11:58:27;99706.00;;;6.49;100.00
29467;BME280;60968;37.490;-122.288;2023-04-20T12:01:28;99707.69;;;6.47;100.00
29467;BME280;60968;37.490;-122.288;2023-04-20T12:04:30;99711.94;;;6.40;100.00
29467;BME280;60968;37.490;-122.288;2023-04-20T12:07:30;99707.59;;;6.39;100.00
29467;BME280;60968;37.490;-122.288;2023-04-20T12:10:31;99717.84;;;6.31;100.00
29467;BME280;60968;37.490;-122.288;2023-04-20T12:13:32;99717.88;;;6.33;100.00
29467;BME280;60968;37.490;-122.288;2023-04-20T12:16:33;99729.06;;;6.30;100.00
29467;BME280;60968;37.490;-122.288;2023-04-20T12:19:34;99723.00;;;6.30;100.00
29467;BME280;60968;37.490;-122.288;2023-04-20T12:22:35;99723.91;;;6.32;100.00
29467;BME280;60968;37.490;-122.288;2023-04-20T12:25:36;99730.84;;;6.34;100.00
29467;BME280;60968;37.490;-122.288;2023-04-20T12:28:37;99725.59;;;6.31;100.00
29467;BME280;60968;37.490;-122.288;2023-04-20T12:31:38;99727.31;;;6.31;100.00
29467;BME280;60968;37.490;-122.288;2023-04-20T12:34:38;99728.25;;;6.34;100.00
29467;BME280;60968;37.490;-122.288;2023-04-20T12:37:39;99728.28;;;6.36;100.00
29467;BME280;60968;37.490;-122.288;2023-04-20T12:40:41;99728.25;;;6.33;100.00
29467;BME280;60968;37.490;-122.288;2023-04-20T12:43:43;99728.16;;;6.30;100.00
29467;BME280;60968;37.490;-122.288;2023-04-20T12:46:44;99725.56;;;6.28;100.00
29467;BME280;60968;37.490;-122.288;2023-04-20T12:49:45;99732.47;;;6.28;100.00
29467;BME280;60968;37.490;-122.288;2023-04-20T12:52:46;99729.81;;;6.23;100.00
29467;BME280;60968;37.490;-122.288;2023-04-20T12:55:50;99733.13;;;6.16;100.00
29467;BME280;60968;37.490;-122.288;2023-04-20T12:58:50;99746.94;;;6.15;100.00
29467;BME280;60968;37.490;-122.288;2023-04-20T13:01:51;99744.38;;;6.16;100.00
29467;BME280;60968;37.490;-122.288;2023-04-20T13:04:52;99742.66;;;6.17;100.00
29467;BME280;60968;37.490;-122.288;2023-04-20T13:07:56;99734.88;;;6.17;100.00
29467;BME280;60968;37.490;-122.288;2023-04-20T13:10:58;99737.47;;;6.17;100.00
29467;BME280;60968;37.490;-122.288;2023-04-20T13:14:02;99740.91;;;6.16;100.00
29467;BME280;60968;37.490;-122.288;2023-04-20T13:17:03;99739.19;;;6.15;100.00
29467;BME280;60968;37.490;-122.288;2023-04-20T13:20:04;99736.63;;;6.16;100.00
29467;BME280;60968;37.490;-122.288;2023-04-20T13:23:05;99736.66;;;6.20;100.00
29467;BME280;60968;37.490;-122.288;2023-04-20T13:26:08;99737.63;;;6.26;100.00
29467;BME280;60968;37.490;-122.288;2023-04-20T13:29:08;99743.69;;;6.30;100.00
29467;BME280;60968;37.490;-122.288;2023-04-20T13:32:11;99741.09;;;6.30;100.00
29467;BME280;60968;37.490;-122.288;2023-04-20T13:35:12;99748.84;;;6.27;100.00
29467;BME280;60968;37.490;-122.288;2023-04-20T13:38:13;99750.53;;;6.23;100.00
29467;BME280;60968;37.490;-122.288;2023-04-20T13:41:15;99754.84;;;6.26;100.00
29467;BME280;60968;37.490;-122.288;2023-04-20T13:44:16;99759.22;;;6.28;100.00
29467;BME280;60968;37.490;-122.288;2023-04-20T13:47:19;99758.38;;;6.31;100.00
29467;BME280;60968;37.490;-122.288;2023-04-20T13:50:21;99765.34;;;6.33;100.00
29467;BME280;60968;37.490;-122.288;2023-04-20T13:53:22;99761.94;;;6.36;100.00
29467;BME280;60968;37.490;-122.288;2023-04-20T13:56:23;99766.47;;;6.52;100.00
29467;BME280;60968;37.490;-122.288;2023-04-20T13:59:24;99780.50;;;6.68;100.00
29467;BME280;60968;37.490;-122.288;2023-04-20T14:02:31;99782.41;;;6.82;100.00
29467;BME280;60968;37.490;-122.288;2023-04-20T14:05:32;99781.75;;;6.97;100.00
29467;BME280;60968;37.490;-122.288;2023-04-20T14:08:34;99787.91;;;7.07;100.00
29467;BME280;60968;37.490;-122.288;2023-04-20T14:11:36;99787.25;;;7.23;100.00
29467;BME280;60968;37.490;-122.288;2023-04-20T14:14:37;99793.44;;;7.36;100.00
29467;BME280;60968;37.490;-122.288;2023-04-20T14:17:39;99801.38;;;7.50;100.00
29467;BME280;60968;37.490;-122.288;2023-04-20T14:20:41;99791.13;;;7.62;100.00
29467;BME280;60968;37.490;-122.288;2023-04-20T14:23:42;99792.16;;;7.77;100.00
29467;BME280;60968;37.490;-122.288;2023-04-20T14:26:46;99794.88;;;7.89;100.00
29467;BME280;60968;37.490;-122.288;2023-04-20T14:29:47;99795.88;;;8.08;100.00
29467;BME280;60968;37.490;-122.288;2023-04-20T14:32:57;99802.09;;;8.26;100.00
29467;BME280;60968;37.490;-122.288;2023-04-20T14:35:58;99810.84;;;8.37;100.00
29467;BME280;60968;37.490;-122.288;2023-04-20T14:39:08;99815.31;;;8.55;100.00
29467;BME280;60968;37.490;-122.288;2023-04-20T14:42:09;99814.63;;;8.78;100.00
29467;BME280;60968;37.490;-122.288;2023-04-20T14:45:10;99812.13;;;9.01;100.00
29467;BME280;60968;37.490;-122.288;2023-04-20T14:48:11;99818.47;;;9.75;100.00
29467;BME280;60968;37.490;-122.288;2023-04-20T14:51:14;99814.03;;;12.58;88.59
29467;BME280;60968;37.490;-122.288;2023-04-20T14:54:15;99806.00;;;15.52;70.54
29467;BME280;60968;37.490;-122.288;2023-04-20T14:57:16;99807.28;;;17.16;61.03
29467;BME280;60968;37.490;-122.288;2023-04-20T15:00:17;99809.03;;;18.57;53.72
29467;BME280;60968;37.490;-122.288;2023-04-20T15:03:18;99802.06;;;19.54;48.39
29467;BME280;60968;37.490;-122.288;2023-04-20T15:06:22;99813.00;;;20.33;45.53
29467;BME280;60968;37.490;-122.288;2023-04-20T15:09:23;99806.00;;;20.75;44.67
29467;BME280;60968;37.490;-122.288;2023-04-20T15:12:24;99804.81;;;20.19;41.53
29467;BME280;60968;37.490;-122.288;2023-04-20T15:15:25;99812.91;;;21.95;41.76
29467;BME280;60968;37.490;-122.288;2023-04-20T15:18:26;99804.00;;;22.15;40.13
29467;BME280;60968;37.490;-122.288;2023-04-20T15:21:27;99802.44;;;22.28;38.82
29467;BME280;60968;37.490;-122.288;2023-04-20T15:24:28;99803.72;;;22.02;38.13
29467;BME280;60968;37.490;-122.288;2023-04-20T15:27:30;99809.13;;;22.55;35.81
29467;BME280;60968;37.490;-122.288;2023-04-20T15:30:36;99814.25;;;22.93;34.05
29467;BME280;60968;37.490;-122.288;2023-04-20T15:33:38;99818.34;;;21.74;31.82